createdAt,value
2023-03-13T00:00:58.198Z,8.52
2023-03-13T00:03:25.648Z,7.60
2023-03-13T00:05:59.368Z,7.60
2023-03-13T00:08:29.925Z,7.30
2023-03-13T00:10:57.291Z,7.32
2023-03-13T00:13:24.290Z,7.53
2023-03-13T00:16:00.424Z,8.27
2023-03-13T00:18:27.396Z,7.63
2023-03-13T00:21:06.166Z,7.47
2023-03-13T00:23:34.485Z,7.43
2023-03-13T00:26:04.688Z,8.25
2023-03-13T00:28:33.492Z,7.30
2023-03-13T00:31:18.750Z,8.00
2023-03-13T00:33:48.284Z,6.97
2023-03-13T00:36:18.072Z,7.97
2023-03-13T00:38:46.135Z,7.70
2023-03-13T00:41:16.495Z,7.53
2023-03-13T00:43:45.303Z,6.75
2023-03-13T00:46:14.384Z,7.78
2023-03-13T00:48:41.577Z,6.72
2023-03-13T00:51:08.859Z,7.25
2023-03-13T00:53:36.452Z,7.38
2023-03-13T00:56:06.995Z,6.68
2023-03-13T00:58:36.519Z,7.45
2023-03-13T01:01:10.741Z,7.18
2023-03-13T01:03:40.504Z,7.65
2023-03-13T01:06:11.554Z,7.55
2023-03-13T01:08:39.273Z,7.13
2023-03-13T01:11:11.805Z,7.30
2023-03-13T01:13:39.069Z,7.03
2023-03-13T01:16:07.477Z,7.40
2023-03-13T01:18:35.868Z,6.85
2023-03-13T01:21:04.032Z,7.40
2023-03-13T01:23:31.765Z,6.47
2023-03-13T01:25:58.932Z,6.60
2023-03-13T01:28:27.435Z,7.15
2023-03-13T01:30:54.789Z,6.72
2023-03-13T01:33:21.871Z,6.72
2023-03-13T01:35:49.128Z,6.50
2023-03-13T01:38:16.078Z,6.25
2023-03-13T01:40:48.341Z,6.70
2023-03-13T01:43:26.827Z,6.82
2023-03-13T01:46:05.628Z,6.13
2023-03-13T01:48:47.435Z,6.07
2023-03-13T01:51:18.474Z,6.53
2023-03-13T01:53:50.505Z,6.28
2023-03-13T01:56:31.555Z,6.90
2023-03-13T01:58:59.742Z,6.57
2023-03-13T02:01:28.564Z,6.70
2023-03-13T02:03:57.882Z,6.43
2023-03-13T02:06:31.222Z,5.97
2023-03-13T02:09:03.284Z,7.18
2023-03-13T02:11:49.161Z,5.85
2023-03-13T02:14:21.302Z,6.35
2023-03-13T02:16:52.076Z,7.05
2023-03-13T02:19:29.162Z,6.40
2023-03-13T02:22:11.039Z,6.25
2023-03-13T02:24:52.832Z,6.60
2023-03-13T02:27:19.924Z,6.05
2023-03-13T02:29:47.714Z,6.00
2023-03-13T02:32:15.055Z,6.63
2023-03-13T02:34:44.351Z,6.78
2023-03-13T02:37:13.855Z,6.63
2023-03-13T02:39:47.428Z,6.22
2023-03-13T02:42:17.746Z,5.40
2023-03-13T02:44:47.206Z,6.63
2023-03-13T02:47:22.413Z,6.32
2023-03-13T02:49:51.146Z,6.35
2023-03-13T02:52:25.677Z,7.07
2023-03-13T02:55:08.551Z,6.07
2023-03-13T02:57:35.686Z,6.50
2023-03-13T03:00:06.492Z,6.20
2023-03-13T03:02:34.439Z,7.18
2023-03-13T03:05:01.375Z,6.15
2023-03-13T03:07:28.362Z,6.40
2023-03-13T03:09:55.414Z,6.78
2023-03-13T03:12:22.485Z,6.57
2023-03-13T03:14:49.529Z,6.53
2023-03-13T03:17:17.560Z,6.50
2023-03-13T03:19:44.567Z,6.32
2023-03-13T03:22:11.569Z,6.20
2023-03-13T03:24:38.524Z,6.13
2023-03-13T03:27:05.677Z,5.57
2023-03-13T03:29:39.101Z,6.78
2023-03-13T03:32:06.829Z,5.95
2023-03-13T03:34:33.880Z,6.63
2023-03-13T03:37:00.850Z,5.97
2023-03-13T03:39:29.031Z,6.22
2023-03-13T03:41:56.329Z,5.78
2023-03-13T03:44:24.423Z,6.85
2023-03-13T03:46:54.868Z,7.10
2023-03-13T03:49:23.331Z,6.50
2023-03-13T03:51:50.678Z,6.20
2023-03-13T03:54:23.048Z,6.25
2023-03-13T03:56:49.958Z,6.00
2023-03-13T03:59:17.111Z,6.43
2023-03-13T04:01:47.187Z,6.28
2023-03-13T04:04:18.449Z,6.78
2023-03-13T04:06:49.794Z,6.30
2023-03-13T04:09:17.172Z,6.03
2023-03-13T04:11:44.198Z,6.53
2023-03-13T04:14:12.122Z,6.70
2023-03-13T04:16:39.401Z,6.20
2023-03-13T04:19:07.468Z,6.40
2023-03-13T04:21:36.112Z,6.97
2023-03-13T04:24:10.537Z,7.20
2023-03-13T04:26:40.056Z,8.40
2023-03-13T04:29:07.245Z,6.90
2023-03-13T04:31:57.213Z,6.65
2023-03-13T04:34:47.267Z,7.25
2023-03-13T04:37:35.509Z,6.72
2023-03-13T04:40:13.384Z,6.88
2023-03-13T04:43:03.447Z,6.97
2023-03-13T04:45:51.556Z,6.75
2023-03-13T04:48:46.817Z,6.53
2023-03-13T04:51:33.985Z,7.57
2023-03-13T04:54:29.970Z,7.35
2023-03-13T04:57:22.997Z,7.13
2023-03-13T05:00:11.591Z,6.35
2023-03-13T05:02:58.508Z,7.10
2023-03-13T05:05:43.867Z,7.18
2023-03-13T05:08:37.162Z,7.43
2023-03-13T05:11:19.112Z,7.82
2023-03-13T05:14:04.808Z,6.85
2023-03-13T05:16:49.360Z,8.07
2023-03-13T05:19:48.100Z,7.30
2023-03-13T05:22:41.000Z,6.60
2023-03-13T05:25:16.944Z,6.47
2023-03-13T05:28:22.096Z,7.03
2023-03-13T05:30:49.190Z,7.15
2023-03-13T05:33:31.562Z,7.32
2023-03-13T05:36:17.881Z,7.53
2023-03-13T05:39:08.975Z,7.95
2023-03-13T05:41:47.686Z,7.20
2023-03-13T05:44:14.850Z,8.23
2023-03-13T05:47:02.355Z,7.93
2023-03-13T05:49:50.461Z,8.07
2023-03-13T05:52:33.845Z,7.32
2023-03-13T05:55:23.922Z,8.32
2023-03-13T05:57:59.721Z,9.02
2023-03-13T06:00:43.843Z,8.32
2023-03-13T06:03:46.122Z,8.02
2023-03-13T06:06:14.832Z,8.35
2023-03-13T06:08:49.366Z,8.20
2023-03-13T06:11:16.439Z,7.95
2023-03-13T06:13:43.531Z,9.25
2023-03-13T06:16:26.242Z,13.60
2023-03-13T06:18:57.968Z,11.57
2023-03-13T06:21:25.163Z,9.43
2023-03-13T06:23:52.148Z,9.40
2023-03-13T06:26:19.133Z,7.75
2023-03-13T06:28:46.051Z,8.73
2023-03-13T06:31:13.151Z,8.70
2023-03-13T06:33:40.101Z,9.45
2023-03-13T06:36:07.525Z,9.57
2023-03-13T06:38:34.825Z,8.95
2023-03-13T06:41:01.825Z,8.05
2023-03-13T06:43:28.747Z,9.50
2023-03-13T06:45:55.809Z,8.60
2023-03-13T06:48:23.500Z,8.80
2023-03-13T06:50:50.651Z,8.60
2023-03-13T06:53:20.467Z,10.45
2023-03-13T06:55:49.049Z,8.50
2023-03-13T06:58:31.199Z,8.77
2023-03-13T07:01:05.874Z,8.77
2023-03-13T07:03:32.990Z,9.02
2023-03-13T07:06:00.505Z,8.52
2023-03-13T07:08:28.084Z,8.88
2023-03-13T07:10:59.975Z,7.80
2023-03-13T07:13:27.351Z,9.70
2023-03-13T07:15:54.504Z,9.32
2023-03-13T07:18:23.081Z,10.27
2023-03-13T07:20:58.776Z,9.65
2023-03-13T07:23:28.652Z,10.07
2023-03-13T07:26:00.889Z,10.25
2023-03-13T07:28:29.576Z,10.52
2023-03-13T07:31:03.366Z,9.60
2023-03-13T07:35:57.154Z,10.00
2023-03-13T07:38:24.139Z,10.98
2023-03-13T07:40:53.213Z,10.82
2023-03-13T07:43:20.395Z,9.77
2023-03-13T07:45:54.185Z,10.63
2023-03-13T07:48:22.523Z,10.98
2023-03-13T07:51:42.525Z,10.60
2023-03-13T08:53:29.822Z,7.87
2023-03-13T08:55:56.765Z,7.85
2023-03-13T08:58:23.908Z,7.88
2023-03-13T09:00:50.916Z,8.02
2023-03-13T09:03:18.137Z,7.20
2023-03-13T09:05:56.011Z,6.93
2023-03-13T09:08:24.086Z,7.00
2023-03-13T09:10:58.832Z,6.90
2023-03-13T09:13:27.308Z,6.85
2023-03-13T09:16:01.451Z,7.10
2023-03-13T09:18:29.493Z,6.68
2023-03-13T09:20:56.584Z,7.00
2023-03-13T09:23:24.545Z,6.45
2023-03-13T09:25:56.436Z,5.90
2023-03-13T09:35:51.004Z,5.97
2023-03-13T09:41:04.966Z,5.85
2023-03-13T09:43:51.412Z,7.00
2023-03-13T09:46:50.502Z,6.35
2023-03-13T09:49:31.830Z,7.22
2023-03-13T09:52:14.115Z,5.85
2023-03-13T09:55:02.324Z,6.32
2023-03-13T10:00:16.558Z,5.20
2023-03-13T10:02:46.592Z,5.82
2023-03-13T10:05:26.477Z,6.68
2023-03-13T10:08:02.017Z,7.45
2023-03-13T10:10:53.886Z,7.15
2023-03-13T10:13:44.195Z,6.55
2023-03-13T10:16:42.956Z,7.38
2023-03-13T10:19:15.767Z,7.15
2023-03-13T10:21:45.059Z,7.00
2023-03-13T10:24:27.266Z,7.50
2023-03-13T10:26:57.310Z,7.78
2023-03-13T10:29:30.250Z,6.85
2023-03-13T10:32:06.050Z,6.85
2023-03-13T10:34:53.200Z,6.72
2023-03-13T10:37:42.262Z,8.45
2023-03-13T10:40:35.736Z,7.60
2023-03-13T10:43:15.281Z,8.30
2023-03-13T10:45:42.314Z,6.57
2023-03-13T10:48:22.373Z,6.65
2023-03-13T10:50:52.599Z,7.55
2023-03-13T10:53:31.852Z,7.43
2023-03-13T10:56:13.896Z,6.68
2023-03-13T10:58:59.539Z,7.68
2023-03-13T11:01:41.940Z,8.07
2023-03-13T11:04:28.367Z,8.25
2023-03-13T11:07:22.981Z,7.97
2023-03-13T11:10:03.584Z,7.93
2023-03-13T11:12:34.867Z,8.05
2023-03-13T11:15:04.609Z,7.28
2023-03-13T11:17:38.930Z,8.00
2023-03-13T11:20:14.613Z,7.80
2023-03-13T11:23:10.338Z,8.18
2023-03-13T11:25:46.739Z,7.88
2023-03-13T11:28:47.500Z,7.75
2023-03-13T11:31:31.737Z,8.68
2023-03-13T16:29:16.341Z,10.82
2023-03-13T16:31:43.358Z,10.07
2023-03-13T16:34:10.272Z,11.10
2023-03-13T16:36:37.788Z,14.35
2023-03-13T16:39:10.942Z,11.77
2023-03-13T16:41:37.898Z,13.35
2023-03-13T16:44:04.999Z,12.98
2023-03-13T16:46:55.581Z,12.23
2023-03-13T16:49:31.277Z,13.00
2023-03-13T16:51:58.217Z,11.07
2023-03-13T16:54:25.210Z,10.68
2023-03-13T16:56:52.171Z,12.68
2023-03-13T16:59:19.668Z,11.77
2023-03-13T17:01:49.297Z,10.75
2023-03-13T17:04:16.386Z,9.63
2023-03-13T17:06:44.815Z,11.05
2023-03-13T17:09:15.700Z,11.02
2023-03-13T17:11:43.064Z,9.88
2023-03-13T17:14:10.427Z,10.15
2023-03-13T17:16:42.434Z,10.10
2023-03-13T17:19:18.506Z,8.80
2023-03-13T17:21:45.421Z,8.88
2023-03-13T17:24:12.311Z,8.93
2023-03-13T17:26:40.133Z,9.27
2023-03-13T17:29:08.035Z,9.57
2023-03-13T17:31:38.517Z,8.98
2023-03-13T17:34:06.329Z,10.38
2023-03-13T17:36:34.937Z,12.32
2023-03-13T17:39:04.611Z,12.85
2023-03-13T17:41:33.330Z,10.68
2023-03-13T17:44:00.432Z,11.50
2023-03-13T17:46:41.006Z,11.48
2023-03-13T17:49:08.339Z,10.68
2023-03-13T17:51:36.333Z,10.25
2023-03-13T17:54:03.455Z,10.18
2023-03-13T17:56:38.870Z,12.45
2023-03-13T17:59:11.134Z,11.48
2023-03-13T18:01:38.189Z,12.55
2023-03-13T18:04:05.422Z,12.77
2023-03-13T18:06:38.920Z,12.15
2023-03-13T18:09:08.752Z,11.35
2023-03-13T18:11:39.124Z,12.15
2023-03-13T18:14:06.877Z,10.75
2023-03-13T18:16:39.003Z,10.90
2023-03-13T18:19:07.733Z,10.68
2023-03-13T18:21:35.164Z,11.07
2023-03-13T18:24:02.842Z,10.13
2023-03-13T18:26:31.250Z,11.55
2023-03-13T18:29:00.347Z,11.68
2023-03-13T18:31:32.675Z,11.30
2023-03-13T18:34:00.159Z,11.27
2023-03-13T18:36:28.929Z,11.70
2023-03-13T18:38:56.839Z,11.40
2023-03-13T18:41:24.899Z,11.80
2023-03-13T18:43:52.215Z,12.73
2023-03-13T18:46:26.695Z,11.50
2023-03-13T18:48:54.818Z,11.60
2023-03-13T18:51:24.864Z,12.85
2023-03-13T18:53:53.637Z,11.55
2023-03-13T18:56:33.303Z,12.93
2023-03-13T18:59:00.572Z,12.60
2023-03-13T19:01:30.305Z,11.75
2023-03-13T19:04:00.003Z,12.05
2023-03-13T19:06:29.594Z,11.63
2023-03-13T19:08:58.463Z,11.52
2023-03-13T19:11:28.254Z,12.35
2023-03-13T19:13:56.075Z,11.95
2023-03-13T19:16:24.854Z,12.48
2023-03-13T19:18:52.170Z,11.50
2023-03-13T19:21:22.143Z,13.40
2023-03-13T19:23:49.981Z,14.07
2023-03-13T19:26:30.893Z,12.73
2023-03-13T19:28:59.083Z,12.48
2023-03-13T19:31:26.654Z,11.88
2023-03-13T19:33:54.401Z,9.30
2023-03-13T19:36:25.005Z,10.63
2023-03-13T19:38:51.979Z,10.98
2023-03-13T19:41:19.239Z,8.88
2023-03-13T19:43:47.917Z,8.60
2023-03-13T19:46:19.829Z,8.98
2023-03-13T19:48:47.231Z,8.60
2023-03-13T19:51:14.978Z,8.32
2023-03-13T19:53:42.045Z,7.30
2023-03-13T19:56:19.118Z,6.60
2023-03-13T19:58:48.493Z,7.75
2023-03-13T20:01:17.837Z,7.25
2023-03-13T20:03:46.319Z,6.30
2023-03-13T20:06:22.083Z,8.30
2023-03-13T20:08:49.804Z,7.45
2023-03-13T20:11:17.462Z,8.25
2023-03-13T20:13:44.491Z,7.78
2023-03-13T20:16:12.096Z,7.90
2023-03-13T20:18:40.288Z,6.28
2023-03-13T20:21:07.611Z,6.90
2023-03-13T20:23:34.689Z,7.22
2023-03-13T20:26:09.853Z,6.60
2023-03-13T20:28:43.106Z,7.22
2023-03-13T20:31:10.442Z,8.00
2023-03-13T20:33:38.131Z,7.68
2023-03-13T20:36:11.028Z,7.43
2023-03-13T20:38:39.101Z,8.13
2023-03-13T20:41:06.918Z,8.18
2023-03-13T20:43:34.620Z,8.75
2023-03-13T20:46:01.921Z,8.95
2023-03-13T20:48:29.548Z,9.02
2023-03-13T20:50:58.342Z,9.00
2023-03-13T20:53:26.643Z,9.55
2023-03-13T20:55:54.514Z,9.68
2023-03-13T20:58:21.896Z,9.57
2023-03-13T21:00:49.259Z,9.50
2023-03-13T21:03:17.627Z,9.02
2023-03-13T21:05:44.800Z,9.88
2023-03-13T21:08:11.917Z,10.70
2023-03-13T21:10:40.590Z,11.30
2023-03-13T21:13:08.945Z,14.73
2023-03-13T21:15:36.141Z,14.27
2023-03-13T21:18:03.530Z,14.13
2023-03-13T21:20:30.771Z,14.73
2023-03-13T21:22:57.722Z,15.20
2023-03-13T21:25:25.360Z,14.85
2023-03-13T21:27:52.374Z,15.52
2023-03-13T21:30:21.534Z,14.35
2023-03-13T21:32:48.977Z,15.63
2023-03-13T21:35:16.899Z,15.00
2023-03-13T21:37:44.196Z,15.80
2023-03-13T21:40:11.868Z,15.85
2023-03-13T21:42:38.874Z,16.08
2023-03-13T21:45:07.456Z,16.08
2023-03-13T21:47:37.075Z,15.57
2023-03-13T21:50:06.628Z,16.70
2023-03-13T21:52:40.643Z,16.67
2023-03-13T21:55:11.717Z,16.88
2023-03-13T21:57:38.865Z,17.70
2023-03-13T22:00:08.289Z,16.58
2023-03-13T22:02:36.987Z,16.42
2023-03-13T22:05:05.175Z,16.63
2023-03-13T22:07:32.125Z,17.05
2023-03-13T22:09:59.138Z,17.33
2023-03-13T22:12:26.787Z,16.63
2023-03-13T22:14:55.658Z,16.95
2023-03-13T22:17:23.695Z,16.17
2023-03-13T22:19:50.637Z,17.75
2023-03-13T22:22:19.993Z,18.70
2023-03-13T22:24:46.952Z,17.48
2023-03-13T22:27:15.433Z,18.02
2023-03-13T22:29:42.360Z,17.35
2023-03-13T22:32:09.816Z,17.38
2023-03-13T22:34:36.862Z,18.35
2023-03-13T22:37:03.842Z,19.13
2023-03-13T22:39:30.778Z,17.20
2023-03-13T22:41:57.713Z,17.25
2023-03-13T22:44:24.709Z,16.75
2023-03-13T22:46:51.600Z,18.00
2023-03-13T22:49:18.552Z,16.75
2023-03-13T22:51:45.492Z,16.38
2023-03-13T22:54:13.475Z,17.73
2023-03-13T22:56:40.340Z,17.20
2023-03-13T22:59:08.164Z,17.30
2023-03-13T23:01:35.085Z,16.83
2023-03-13T23:04:02.068Z,17.70
2023-03-13T23:06:28.977Z,18.50
2023-03-13T23:08:55.961Z,19.00
2023-03-13T23:11:22.987Z,20.25
2023-03-13T23:13:49.888Z,18.48
2023-03-13T23:16:16.985Z,17.77
2023-03-13T23:18:44.873Z,18.23
2023-03-13T23:21:14.153Z,19.48
2023-03-13T23:23:41.734Z,18.60
2023-03-13T23:26:14.250Z,18.25
2023-03-13T23:28:41.417Z,20.40
2023-03-13T23:31:17.082Z,18.35
2023-03-13T23:33:44.757Z,19.02
2023-03-13T23:36:14.848Z,19.27
2023-03-13T23:38:42.063Z,19.42
2023-03-13T23:41:13.959Z,19.30
2023-03-13T23:43:41.300Z,19.17
2023-03-13T23:46:22.473Z,19.45
2023-03-13T23:48:52.855Z,20.48
2023-03-13T23:51:19.779Z,22.00
2023-03-13T23:53:46.753Z,21.48
2023-03-13T23:56:13.728Z,20.75
2023-03-13T23:58:41.519Z,19.70
